ESSA/ARN METAR and TAF weather

Enter ICAO airport designator
Station Type Date Time Source
ESSA METAR 2020/07/06 22:50 UTC NOAA

ESSA 062250Z 25009KT 9999 SCT012 BKN028 12/10 Q0993 TEMPO SHRA BKN012 SCT040CB


Station Type Date Time Source
ESSA Decoded METAR 2020/07/06 22:50 UTC NOAA

Stockholm / Arlanda, Sweden (ESSA) 59-39N 017-57E 61M
Jul 06, 2020 - 06:50 PM EDT / 2020.07.06 2250 UTC
Wind: from the WSW (250 degrees) at 10 MPH (9 KT):0
Visibility: greater than 7 mile(s):0
Sky conditions: mostly cloudy
Weather: Cumulonimbus clouds observed
Temperature: 53 F (12 C)
Dew Point: 50 F (10 C)
Relative Humidity: 87%
Pressure (altimeter): 29.32 in. Hg (0993 hPa)
ob: ESSA 062250Z 25009KT 9999 SCT012 BKN028 12/10 Q0993 TEMPO SHRA BKN012 SCT040CB
cycle: 23

Station Type Date Time Source
ESSA TAF 2020/07/06 18:09 UTC NOAA

TAF ESSA 061730Z 0618/0718 21012KT CAVOK PROB40 0618/0622 SHRA BKN040CB PROB40 0622/0624 -SHRA BKN012 SCT040CB
BECMG 0622/0624 27010KT

Example: see airport list